Sevier River / Vermillion Canal




Date Battery Voltage (V) Canal Stage above Flume (ft) Canal Stage below Flume (ft) Canal Flow (cfs) Canal Gate Height (%) River Stage at Dam (ft) River Flow at Dam (cfs) Pond Stage at Gate (ft) Canal Stage Offset (ft) River Stage below Dam (ft) River Flow below Dam (cfs) Submergence Mossing CFS Set (cfs) Gate Set (%) Auto CFS Auto Gate Gate Warning Settle Count Gate Up Total Gate Down Total
03/01/2019 13.04 0.15 -0.44 1.7 -0.75 79 1.38 169
03/02/2019 12.64 0.23 -0.44 3.1 1.10 182 1.44 180
03/03/2019 12.82 0.23 -0.44 3.1 1.13 188 1.48 188
03/04/2019 12.91 0.23 -0.44 3.1 1.15 192 1.49 190
03/05/2019 13.04 0.23 -0.44 3.0 1.14 191 1.48 186
03/06/2019 12.63 0.23 -0.44 2.9 1.15 194 1.49 190
03/07/2019 13.06 0.22 -0.45 2.8 1.29 231 1.67 224
03/08/2019 13.12 0.21 -0.45 2.7 1.23 213 1.57 205
03/09/2019 13.00 0.21 -0.45 2.6 1.20 207 1.54 199
03/10/2019 13.09 0.21 -0.45 2.6 1.19 205 1.53 196
03/11/2019 13.10 0.21 -0.45 2.6 1.18 201 1.51 192
03/12/2019 13.04 0.20 -0.45 2.4 1.18 201 1.50 191
03/13/2019 13.05 0.20 -0.45 2.4 1.18 198 1.50 191
03/14/2019 13.18 0.19 -0.45 2.2 1.17 194 1.48 188
03/15/2019 13.22 0.19 -0.45 2.2 1.17 195 1.49 188
03/16/2019 13.17 0.19 -0.45 2.2 1.17 195 1.49 189
03/17/2019 13.13 0.19 -0.45 2.2 1.18 196 1.49 190
03/18/2019 13.10 0.19 -0.45 2.2 1.18 198 1.50 191
03/19/2019 13.12 0.19 -0.45 2.2 1.19 200 1.52 194
03/20/2019 13.10 0.19 -0.45 2.2 1.21 204 1.53 197
03/21/2019 12.95 0.19 -0.44 2.2 1.23 210 1.56 202
03/22/2019 13.06 0.19 -0.44 2.2 1.09 177 1.38 170
03/23/2019 13.07 0.19 -0.44 2.2 0.73 96 1.03 108
03/24/2019 13.16 0.18 -0.44 2.0 0.67 84 1.01 105
03/25/2019 13.11 0.18 -0.44 2.0 0.63 77 1.00 104
03/26/2019 13.08 0.18 -0.44 2.0 0.59 70 0.99 103
03/27/2019 13.07 0.18 -0.44 2.0 0.62 76 0.99 102
03/28/2019 13.09 0.18 -0.44 2.0 0.65 81 0.99 102
03/29/2019 13.12 0.30 -0.41 6.2 0.65 81 0.99 102
03/30/2019 13.08 0.82 -0.27 23.5 0.54 60 0.98 101
03/31/2019 13.14 0.81 -0.29 22.9 0.50 54 0.98 100
Average 3.9 159 166 0.00
Maximum 23.5 231 224
Minimum 1.7 54 100
Total Volume (AF) 237.2 9,776 10,187 0.00